Flight Track Log - Related Links

Times and Time Zones

All times are in EDT time to prevent confusion due to time zone crossing. See the TAM3736 flight status page for this flight to view local times or setup timezone preferences in your user account.

Time Position Orientation Groundspeed Altitude Reporting Facility
EDT Latitude Longitude Course Direction KTS MPH feet Rate Location/Type
Sun 09:18:00 PM -22.4807 -47.7962 317° Northwest  Level Estimated
Sun 09:19:00 PM -22.4089 -47.8668 318° Northwest  Level Estimated
Sun 09:20:00 PM -22.3369 -47.9374 318° Northwest  Level Estimated
Sun 09:21:00 PM -22.2650 -48.0079 318° Northwest  Level Estimated
Sun 09:22:00 PM -22.1930 -48.0784 318° Northwest  Level Estimated
Sun 09:23:00 PM -22.1210 -48.1488 318° Northwest  Level Estimated
Sun 09:24:00 PM -22.0490 -48.2191 318° Northwest  Level Estimated
Sun 09:25:00 PM -21.9769 -48.2893 318° Northwest  Level Estimated
Sun 09:26:00 PM -21.9048 -48.3594 318° Northwest  Level Estimated
Sun 09:27:00 PM -21.8327 -48.4295 318° Northwest  Level Estimated
Sun 09:28:00 PM -21.7605 -48.4995 318° Northwest  Level Estimated
Sun 09:29:00 PM -21.6883 -48.5695 318° Northwest  Level Estimated
Sun 09:30:00 PM -21.6161 -48.6394 318° Northwest  Level Estimated
Sun 09:31:00 PM -21.5438 -48.7092 318° Northwest  Level Estimated
Sun 09:32:00 PM -21.4716 -48.7789 318° Northwest  Level Estimated
Sun 09:33:00 PM -21.3993 -48.8486 318° Northwest  Level Estimated
Sun 09:34:00 PM -21.3269 -48.9182 318° Northwest  Level Estimated
Sun 09:35:00 PM -21.2546 -48.9877 318° Northwest  Level Estimated
Sun 09:36:00 PM -21.1822 -49.0572 318° Northwest  Level Estimated
Sun 09:37:00 PM -21.1097 -49.1266 318° Northwest  Level Estimated
Sun 09:38:00 PM -21.0373 -49.1959 318° Northwest  Level Estimated
Sun 09:39:00 PM -20.9648 -49.2651 318° Northwest  Level Estimated
Sun 09:40:00 PM -20.8923 -49.3343 318° Northwest  Level Estimated
Sun 09:41:00 PM -20.8198 -49.4035 318° Northwest  Level Estimated
Sun 09:42:00 PM -20.8166 -49.4065 318° Northwest  Level Estimated
Sun 09:43:00 PM -20.8166 -49.4065 343° North  Level Estimated
Sun 09:44:00 PM -20.8166 -49.4065 343° North  Level Estimated
Sun 09:45:00 PM -20.8166 -49.4065 343° North  Level Estimated
Sun 09:46:00 PM -20.8166 -49.4065 343° North  Level Estimated
Sun 09:47:00 PM -20.8166 -49.4065 343° North  Level Estimated
Sun 09:48:00 PM -20.8166 -49.4065 343° North  Level Estimated
Sun 09:49:00 PM -20.8166 -49.4065 343° North  Level Estimated
Sun 09:50:00 PM -20.8166 -49.4065 343° North  Level Estimated
Sun 09:51:00 PM -20.8166 -49.4065 343° North  Level Estimated
Sun 09:52:00 PM -20.8166 -49.4065 343° North  Level Estimated
Sun 09:53:00 PM -20.8166 -49.4065 343° North  Level Estimated
Sun 09:54:00 PM -20.8166 -49.4065 343° North  Level Estimated
Sun 09:55:00 PM -20.8166 -49.4065 343° North  Level Estimated
Sun 09:56:00 PM -20.8166 -49.4065 343° North  Level Estimated
Sun 09:57:00 PM -20.8166 -49.4065 343° North  Level Estimated

Login

Don't have an account? Register now (free) for customized features, flight alerts, and more!